Airfield :
LOGIN :

Register | Disclaimer

   EN    FR    IT 

 










Legend :    VFR   Marginal VFR   IFR   Intensive IFR   Very Intensive IFR
Visi :
Ceiling :
>= 8 km
>= 3000ft
5 to 8 km
1000 to 3000 ft
1500m to 5 km
500 to 1000 ft
800 to 1500m
200 to 500 ft
< 800m
< 200 ft
Symbols :   Thunderstorms  Fog  Heavy snow  Heavy precipitations  Wind > 20 kt
SIGMETs :     Misc.  Thunderstorms  Icing  Turbulence  Mountain Waves  Volcanic Ashes






- Airport Elevation : 52 ft
- IATA code : RNN


EKRN - Bornholm Ronne

CURRENT METAR :
  • 042020Z AUTO 08017G27KT 9999 BKN100/// BKN160/// 15/10 Q0994

EXPIRED METARs :
  • 041950Z AUTO 08017KT 9999 BKN120/// BKN170/// 15/10 Q0994
  • 041920Z AUTO 08016G28KT 9999 BKN130/// 15/09 Q0994
  • 041850Z AUTO 08015KT 050V110 9999 FEW130/// SCT150/// 15/09 Q0995
  • 041820Z AUTO 08013G27KT 9999 FEW190/// 15/09 Q0995
  • 041750Z AUTO 07015G26KT 9000 FEW140/// 15/09 Q0995

Expired Forecast.



MET'MAP, your aeronautical weather chart ! - Copyright ORBIFLY December 2007 - Disclaimer

ORBIFLY MET'MAP TEAM :

Programming & Development : Alexandra Zaïnal
Concept & original design : Baudouin d'Aumeries
Assistance for programming : Marc-Olivier Méhu
Technical & hardware support : Manuel Goepfert

Contact : metmap@orbifly.com




SOURCES & CREDITS :

   NOAA